createdAt,value
2023-05-18T00:00:53.924Z,102258.41
2023-05-18T00:03:28.285Z,102258.94
2023-05-18T00:06:04.585Z,102257.63
2023-05-18T00:08:39.137Z,102259.97
2023-05-18T00:11:11.978Z,102249.63
2023-05-18T00:13:44.986Z,102247.78
2023-05-18T00:16:17.873Z,102249.31
2023-05-18T00:18:54.501Z,102254.47
2023-05-18T00:21:30.585Z,102255.41
2023-05-18T00:24:03.681Z,102254.63
2023-05-18T00:26:36.633Z,102252.56
2023-05-18T00:29:10.463Z,102252.22
2023-05-18T00:31:45.275Z,102255.13
2023-05-18T00:34:18.267Z,102251.50
2023-05-18T00:36:52.469Z,102262.53
2023-05-18T00:39:28.042Z,102251.44
2023-05-18T00:42:01.321Z,102257.16
2023-05-18T00:44:34.553Z,102261.63
2023-05-18T00:47:07.712Z,102262.41
2023-05-18T00:49:40.674Z,102256.81
2023-05-18T00:52:15.055Z,102249.41
2023-05-18T00:54:48.167Z,102253.88
2023-05-18T00:57:21.339Z,102258.84
2023-05-18T00:59:56.165Z,102245.72
2023-05-18T01:02:30.409Z,102251.81
2023-05-18T01:05:04.644Z,102251.34
2023-05-18T01:07:42.820Z,102249.16
2023-05-18T01:10:18.182Z,102255.97
2023-05-18T01:12:57.473Z,102255.63
2023-05-18T01:15:35.088Z,102256.66
2023-05-18T01:18:16.200Z,102260.56
2023-05-18T01:20:57.657Z,102252.47
2023-05-18T01:24:00.707Z,102268.91
2023-05-18T01:26:42.188Z,102269.81
2023-05-18T01:29:16.825Z,102270.91
2023-05-18T01:31:49.666Z,102269.97
2023-05-18T01:34:23.151Z,102256.66
2023-05-18T01:36:57.103Z,102267.16
2023-05-18T01:39:30.081Z,102272.88
2023-05-18T01:42:14.202Z,102268.91
2023-05-18T01:44:52.052Z,102274.03
2023-05-18T01:47:26.788Z,102277.81
2023-05-18T01:50:05.044Z,102278.44
2023-05-18T01:52:41.011Z,102283.75
2023-05-18T01:55:16.290Z,102273.06
2023-05-18T01:57:53.962Z,102272.75
2023-05-18T02:00:27.643Z,102277.31
2023-05-18T02:03:01.037Z,102274.47
2023-05-18T02:05:34.296Z,102275.38
2023-05-18T02:08:07.670Z,102268.38
2023-05-18T02:10:40.556Z,102269.59
2023-05-18T02:13:15.373Z,102270.63
2023-05-18T02:15:48.941Z,102266.94
2023-05-18T02:18:22.479Z,102269.44
2023-05-18T02:21:00.082Z,102266.09
2023-05-18T02:23:33.880Z,102266.44
2023-05-18T02:26:07.334Z,102256.97
2023-05-18T02:28:41.508Z,102269.22
2023-05-18T02:31:14.378Z,102264.03
2023-05-18T02:33:47.356Z,102267.25
2023-05-18T02:36:22.596Z,102268.06
2023-05-18T02:38:57.196Z,102273.59
2023-05-18T02:41:30.062Z,102271.47
2023-05-18T02:44:04.480Z,102279.53
2023-05-18T02:46:37.417Z,102269.56
2023-05-18T02:49:12.366Z,102275.00
2023-05-18T02:51:46.031Z,102274.88
2023-05-18T02:54:19.443Z,102274.06
2023-05-18T02:56:56.692Z,102269.06
2023-05-18T02:59:40.818Z,102267.25
2023-05-18T03:02:14.358Z,102279.47
2023-05-18T03:04:53.812Z,102277.94
2023-05-18T03:07:27.531Z,102280.22
2023-05-18T03:10:03.729Z,102279.81
2023-05-18T03:12:39.125Z,102278.53
2023-05-18T03:15:16.192Z,102277.66
2023-05-18T03:17:49.424Z,102276.09
2023-05-18T03:20:22.730Z,102280.81
2023-05-18T03:22:57.127Z,102289.84
2023-05-18T03:25:32.777Z,102279.19
2023-05-18T03:28:07.408Z,102284.72
2023-05-18T03:30:43.514Z,102283.59
2023-05-18T03:33:16.705Z,102286.44
2023-05-18T03:35:52.431Z,102281.34
2023-05-18T03:38:25.373Z,102273.22
2023-05-18T03:41:05.371Z,102279.16
2023-05-18T03:43:38.290Z,102287.97
2023-05-18T03:46:12.693Z,102286.19
2023-05-18T03:48:45.806Z,102286.88
2023-05-18T03:51:18.990Z,102290.63
2023-05-18T03:53:52.228Z,102284.22
2023-05-18T03:56:25.334Z,102290.63
2023-05-18T03:58:58.500Z,102291.03
2023-05-18T04:01:33.074Z,102286.50
2023-05-18T04:04:07.238Z,102277.63
2023-05-18T04:06:40.673Z,102284.84
2023-05-18T04:09:17.502Z,102288.38
2023-05-18T04:11:50.430Z,102291.59
2023-05-18T04:14:24.632Z,102294.44
2023-05-18T04:17:04.612Z,102284.97
2023-05-18T04:19:38.814Z,102289.34
2023-05-18T04:22:12.659Z,102288.88
2023-05-18T04:24:47.289Z,102304.03
2023-05-18T04:27:20.294Z,102308.22
2023-05-18T04:29:53.138Z,102308.13
2023-05-18T04:32:31.029Z,102314.25
2023-05-18T04:35:05.275Z,102309.34
2023-05-18T04:37:40.306Z,102310.53
2023-05-18T04:40:17.252Z,102303.91
2023-05-18T04:42:51.943Z,102314.44
2023-05-18T04:45:32.036Z,102311.75
2023-05-18T04:48:07.645Z,102319.25
2023-05-18T04:50:41.958Z,102317.19
2023-05-18T04:53:18.106Z,102318.75
2023-05-18T04:55:51.145Z,102320.75
2023-05-18T04:58:24.181Z,102321.25
2023-05-18T05:00:58.160Z,102326.31
2023-05-18T05:03:32.588Z,102317.06
2023-05-18T05:06:06.153Z,102325.56
2023-05-18T05:08:39.280Z,102325.63
2023-05-18T05:11:12.162Z,102318.31
2023-05-18T05:13:45.030Z,102324.22
2023-05-18T05:16:17.934Z,102319.91
2023-05-18T05:18:52.167Z,102324.94
2023-05-18T05:21:25.040Z,102316.16
2023-05-18T05:23:58.018Z,102326.97
2023-05-18T05:26:32.977Z,102334.06
2023-05-18T05:29:05.882Z,102327.09
2023-05-18T05:31:38.797Z,102333.00
2023-05-18T05:34:13.419Z,102330.19
2023-05-18T05:36:46.414Z,102325.03
2023-05-18T05:39:19.334Z,102327.47
2023-05-18T05:41:52.256Z,102328.97
2023-05-18T05:44:25.349Z,102334.88
2023-05-18T05:46:58.412Z,102334.44
2023-05-18T05:49:33.168Z,102331.56
2023-05-18T05:52:06.732Z,102329.09
2023-05-18T05:54:39.648Z,102341.34
2023-05-18T05:57:12.794Z,102340.56
2023-05-18T05:59:45.788Z,102340.50
2023-05-18T06:02:18.865Z,102328.19
2023-05-18T06:04:53.279Z,102327.00
2023-05-18T06:07:26.301Z,102337.41
2023-05-18T06:09:59.256Z,102340.78
2023-05-18T06:12:32.249Z,102336.72
2023-05-18T06:15:06.654Z,102336.47
2023-05-18T06:17:43.931Z,102344.09
2023-05-18T06:20:19.290Z,102336.34
2023-05-18T06:22:52.292Z,102349.13
2023-05-18T06:25:33.061Z,102337.81
2023-05-18T06:28:18.925Z,102340.59
2023-05-18T06:31:05.022Z,102331.94
2023-05-18T06:33:58.167Z,102337.00
2023-05-18T06:36:32.919Z,102334.16
2023-05-18T06:39:05.894Z,102341.06
2023-05-18T06:41:38.787Z,102345.41
2023-05-18T06:44:12.091Z,102337.66
2023-05-18T06:47:05.199Z,102345.59
2023-05-18T06:49:38.456Z,102340.03
2023-05-18T06:52:13.608Z,102341.66
2023-05-18T06:54:48.291Z,102343.25
2023-05-18T06:57:21.186Z,102336.31
2023-05-18T06:59:54.515Z,102341.16
2023-05-18T07:02:28.550Z,102346.47
2023-05-18T07:05:01.551Z,102337.94
2023-05-18T07:07:37.543Z,102347.09
2023-05-18T07:10:10.999Z,102328.19
2023-05-18T07:12:43.864Z,102336.63
2023-05-18T07:15:17.039Z,102343.88
2023-05-18T07:17:49.878Z,102345.78
2023-05-18T07:20:24.926Z,102334.72
2023-05-18T07:23:00.276Z,102336.31
2023-05-18T07:25:33.356Z,102343.50
2023-05-18T07:28:06.788Z,102351.69
2023-05-18T07:30:39.638Z,102352.94
2023-05-18T07:33:12.499Z,102349.03
2023-05-18T07:35:45.591Z,102350.09
2023-05-18T07:38:19.822Z,102354.31
2023-05-18T07:40:52.709Z,102357.47
2023-05-18T07:43:25.530Z,102358.03
2023-05-18T07:45:58.481Z,102350.91
2023-05-18T07:48:31.382Z,102343.75
2023-05-18T07:51:04.541Z,102352.13
2023-05-18T07:53:39.492Z,102343.44
2023-05-18T07:56:13.316Z,102349.19
2023-05-18T07:58:46.136Z,102356.25
2023-05-18T08:01:19.248Z,102333.59
2023-05-18T08:03:52.256Z,102347.78
2023-05-18T08:06:25.287Z,102350.97
2023-05-18T08:08:59.599Z,102349.06
2023-05-18T08:11:32.439Z,102345.59
2023-05-18T08:14:05.336Z,102346.94
2023-05-18T08:16:38.484Z,102335.06
2023-05-18T08:19:11.597Z,102336.13
2023-05-18T08:21:46.180Z,102332.97
2023-05-18T08:24:20.395Z,102340.81
2023-05-18T08:26:53.508Z,102341.69
2023-05-18T08:29:26.504Z,102339.19
2023-05-18T08:31:59.353Z,102340.59
2023-05-18T08:34:32.265Z,102333.91
2023-05-18T08:37:05.500Z,102335.44
2023-05-18T08:39:40.340Z,102331.13
2023-05-18T08:42:20.523Z,102330.63
2023-05-18T08:45:13.038Z,102318.66
2023-05-18T08:47:46.593Z,102327.06
2023-05-18T08:50:28.265Z,102304.09
2023-05-18T08:53:03.228Z,102317.97
2023-05-18T08:55:38.452Z,102325.16
2023-05-18T08:58:14.871Z,102331.88
2023-05-18T09:00:47.753Z,102326.50
2023-05-18T09:03:21.603Z,102319.50
2023-05-18T09:05:56.777Z,102309.13
2023-05-18T09:08:30.321Z,102305.09
2023-05-18T09:11:04.834Z,102315.25
2023-05-18T09:13:37.734Z,102317.28
2023-05-18T09:16:10.587Z,102312.13
2023-05-18T09:18:43.528Z,102302.69
2023-05-18T09:21:16.346Z,102310.97
2023-05-18T09:23:49.255Z,102312.34
2023-05-18T09:26:23.663Z,102297.47
2023-05-18T09:28:56.774Z,102303.38
2023-05-18T09:31:31.929Z,102298.50
2023-05-18T09:34:06.496Z,102299.13
2023-05-18T09:36:39.310Z,102293.41
2023-05-18T09:39:16.420Z,102294.41
2023-05-18T09:41:56.283Z,102275.34
2023-05-18T09:44:32.952Z,102278.41
2023-05-18T09:47:10.500Z,102299.53
2023-05-18T09:49:43.379Z,102292.13
2023-05-18T09:52:16.740Z,102295.53
2023-05-18T09:54:59.738Z,102276.53
2023-05-18T09:57:40.488Z,102300.13
2023-05-18T10:00:15.622Z,102296.13
2023-05-18T10:02:52.467Z,102294.53
2023-05-18T10:05:27.630Z,102285.88
2023-05-18T10:08:00.828Z,102289.59
2023-05-18T10:10:33.881Z,102280.72
2023-05-18T10:13:08.125Z,102297.75
2023-05-18T10:15:48.248Z,102288.00
2023-05-18T10:18:24.019Z,102286.09
2023-05-18T10:21:02.910Z,102281.91
2023-05-18T10:23:37.580Z,102280.25
2023-05-18T10:26:10.587Z,102285.53
2023-05-18T10:28:47.349Z,102284.56
2023-05-18T10:31:22.646Z,102271.53
2023-05-18T10:33:56.822Z,102272.53
2023-05-18T10:36:32.709Z,102263.38
2023-05-18T10:39:08.975Z,102272.84
2023-05-18T10:41:43.361Z,102281.66
2023-05-18T10:44:18.479Z,102267.31
2023-05-18T10:46:51.663Z,102257.00
2023-05-18T10:49:28.105Z,102255.81
2023-05-18T10:52:03.968Z,102240.94
2023-05-18T10:54:37.896Z,102261.53
2023-05-18T10:57:18.445Z,102249.47
2023-05-18T10:59:52.802Z,102242.28
2023-05-18T11:02:27.159Z,102246.97
2023-05-18T11:05:00.813Z,102240.66
2023-05-18T11:07:34.312Z,102239.69
2023-05-18T11:10:10.604Z,102236.47
2023-05-18T11:12:44.051Z,102237.56
2023-05-18T11:15:19.479Z,102233.66
2023-05-18T11:18:13.910Z,102233.97
2023-05-18T11:20:47.243Z,102249.97
2023-05-18T11:23:20.950Z,102242.56
2023-05-18T11:25:54.298Z,102242.16
2023-05-18T11:28:28.743Z,102242.91
2023-05-18T11:31:03.868Z,102241.72
2023-05-18T11:33:38.406Z,102234.25
2023-05-18T11:36:13.439Z,102242.50
2023-05-18T11:38:52.812Z,102240.81
2023-05-18T11:41:29.154Z,102232.78
2023-05-18T11:44:17.229Z,102237.59
2023-05-18T11:46:57.385Z,102233.38
2023-05-18T11:49:31.954Z,102226.00
2023-05-18T11:52:07.471Z,102221.28
2023-05-18T11:54:46.847Z,102221.94
2023-05-18T11:57:21.291Z,102221.91
2023-05-18T11:59:56.341Z,102218.72
2023-05-18T12:02:33.696Z,102213.25
2023-05-18T12:05:09.642Z,102214.00
2023-05-18T12:07:44.622Z,102208.50
2023-05-18T12:10:17.565Z,102202.88
2023-05-18T12:12:53.406Z,102206.22
2023-05-18T12:15:26.227Z,102213.50
2023-05-18T12:18:00.872Z,102200.22
2023-05-18T12:20:35.457Z,102200.16
2023-05-18T12:23:08.528Z,102198.97
2023-05-18T12:25:41.340Z,102191.53
2023-05-18T12:28:17.045Z,102203.50
2023-05-18T12:30:50.502Z,102195.34
2023-05-18T12:33:24.697Z,102194.38
2023-05-18T12:35:57.957Z,102195.56
2023-05-18T12:38:32.798Z,102187.22
2023-05-18T12:41:06.611Z,102192.47
2023-05-18T12:43:40.344Z,102184.56
2023-05-18T12:46:13.301Z,102170.94
2023-05-18T12:48:48.622Z,102188.72
2023-05-18T12:51:22.157Z,102185.44
2023-05-18T12:53:55.033Z,102183.88
2023-05-18T12:56:28.458Z,102178.16
2023-05-18T12:59:03.582Z,102175.97
2023-05-18T13:04:18.261Z,102175.88
2023-05-18T13:06:51.440Z,102172.44
2023-05-18T13:09:24.200Z,102171.00
2023-05-18T13:14:39.092Z,102156.69
2023-05-18T13:17:11.873Z,102158.84
2023-05-18T13:19:45.987Z,102137.09
2023-05-18T13:22:19.403Z,102159.50
2023-05-18T13:24:52.133Z,102152.09
2023-05-18T13:27:24.915Z,102146.59
2023-05-18T13:29:59.597Z,102149.00
2023-05-18T13:32:32.394Z,102158.13
2023-05-18T13:35:07.112Z,102144.47
2023-05-18T13:37:40.023Z,102142.84
2023-05-18T13:40:13.498Z,102137.84
2023-05-18T13:42:47.700Z,102134.22
2023-05-18T13:45:21.741Z,102135.25
2023-05-18T13:47:54.450Z,102133.56
2023-05-18T13:50:28.938Z,102132.28
2023-05-18T13:53:02.396Z,102121.06
2023-05-18T13:55:36.021Z,102123.41
2023-05-18T13:58:09.057Z,102123.84
2023-05-18T14:00:41.823Z,102120.94
2023-05-18T14:03:17.549Z,102118.00
2023-05-18T14:05:51.900Z,102124.28
2023-05-18T14:08:24.678Z,102108.78
2023-05-18T14:10:57.493Z,102107.81
2023-05-18T14:13:30.296Z,102101.16
2023-05-18T14:16:03.141Z,102097.28
2023-05-18T14:18:36.064Z,102087.28
2023-05-18T14:21:10.175Z,102101.69
2023-05-18T14:23:42.929Z,102095.81
2023-05-18T14:26:15.852Z,102089.00
2023-05-18T14:28:48.753Z,102079.00
2023-05-18T14:31:21.555Z,102081.88
2023-05-18T14:33:54.497Z,102079.16
2023-05-18T14:36:28.865Z,102074.31
2023-05-18T14:39:01.657Z,102080.56
2023-05-18T14:41:34.500Z,102075.16
2023-05-18T14:44:08.638Z,102071.22
2023-05-18T14:46:41.937Z,102089.03
2023-05-18T14:49:14.974Z,102079.91
2023-05-18T14:51:49.196Z,102081.06
2023-05-18T14:54:22.409Z,102091.06
2023-05-18T14:56:55.280Z,102086.81
2023-05-18T14:59:28.083Z,102086.66
2023-05-18T15:02:00.901Z,102076.34
2023-05-18T15:04:33.717Z,102078.53
2023-05-18T15:07:08.094Z,102079.84
2023-05-18T15:09:40.892Z,102082.38
2023-05-18T15:12:13.651Z,102079.03
2023-05-18T15:14:47.155Z,102074.13
2023-05-18T15:17:19.993Z,102078.72
2023-05-18T15:19:52.743Z,102084.81
2023-05-18T15:22:26.920Z,102073.00
2023-05-18T15:25:01.471Z,102081.69
2023-05-18T15:27:34.370Z,102073.84
2023-05-18T15:30:11.440Z,102075.16
2023-05-18T15:32:44.608Z,102075.25
2023-05-18T15:35:17.802Z,102072.88
2023-05-18T15:37:52.080Z,102079.16
2023-05-18T15:40:25.055Z,102065.81
2023-05-18T15:42:57.861Z,102065.50
2023-05-18T15:45:31.065Z,102055.38
2023-05-18T15:48:04.049Z,102053.44
2023-05-18T15:50:36.913Z,102054.84
2023-05-18T15:53:11.127Z,102056.88
2023-05-18T15:55:43.880Z,102051.69
2023-05-18T15:58:16.836Z,102056.97
2023-05-18T16:00:49.655Z,102049.63
2023-05-18T16:03:23.052Z,102046.19
2023-05-18T16:05:56.067Z,102052.38
2023-05-18T16:08:32.066Z,102056.06
2023-05-18T16:11:06.904Z,102048.75
2023-05-18T16:13:39.723Z,102040.59
2023-05-18T16:16:14.040Z,102050.59
2023-05-18T16:18:47.032Z,102039.63
2023-05-18T16:21:20.174Z,102045.34
2023-05-18T16:23:54.337Z,102043.31
2023-05-18T16:26:27.119Z,102044.63
2023-05-18T16:29:00.143Z,102039.91
2023-05-18T16:31:33.382Z,102034.00
2023-05-18T16:34:06.204Z,102044.22
2023-05-18T16:36:39.173Z,102041.56
2023-05-18T16:39:13.350Z,102042.22
2023-05-18T16:41:45.934Z,102037.19
2023-05-18T16:44:18.656Z,102037.16
2023-05-18T16:46:51.704Z,102039.94
2023-05-18T16:49:24.894Z,102034.00
2023-05-18T16:51:58.646Z,102039.63
2023-05-18T16:54:32.780Z,102036.59
2023-05-18T16:57:06.142Z,102034.69
2023-05-18T16:59:38.908Z,102034.41
2023-05-18T17:02:13.312Z,102028.09
2023-05-18T17:04:46.793Z,102031.50
2023-05-18T17:07:19.857Z,102032.47
2023-05-18T17:09:54.177Z,102030.31
2023-05-18T17:12:26.950Z,102026.59
2023-05-18T17:15:02.396Z,102026.69
2023-05-18T17:17:35.239Z,102028.97
2023-05-18T17:20:10.676Z,102025.13
2023-05-18T17:22:43.502Z,102026.69
2023-05-18T17:25:17.734Z,102025.88
2023-05-18T17:27:50.514Z,102021.91
2023-05-18T17:30:23.554Z,102030.84
2023-05-18T17:32:56.400Z,102027.19
2023-05-18T17:35:29.238Z,102033.84
2023-05-18T17:38:01.984Z,102034.28
2023-05-18T17:40:36.356Z,102024.88
2023-05-18T17:43:09.414Z,102027.38
2023-05-18T17:45:42.611Z,102031.34
2023-05-18T17:48:15.775Z,102022.53
2023-05-18T17:50:49.060Z,102030.91
2023-05-18T17:53:22.524Z,102026.59
2023-05-18T17:55:56.718Z,102026.97
2023-05-18T17:58:29.774Z,102025.00
2023-05-18T18:01:02.705Z,102023.41
2023-05-18T18:03:36.670Z,102021.28
2023-05-18T18:06:09.636Z,102020.88
2023-05-18T18:08:42.788Z,102024.88
2023-05-18T18:11:17.623Z,102014.16
2023-05-18T18:13:51.427Z,102022.22
2023-05-18T18:16:24.684Z,102023.50
2023-05-18T18:18:58.228Z,102029.50
2023-05-18T18:21:31.053Z,102023.44
2023-05-18T18:24:04.178Z,102024.00
2023-05-18T18:26:40.475Z,102029.63
2023-05-18T18:29:13.539Z,102028.25
2023-05-18T18:31:46.555Z,102035.19
2023-05-18T18:34:19.735Z,102036.59
2023-05-18T18:36:52.563Z,102035.56
2023-05-18T18:39:26.256Z,102037.44
2023-05-18T18:42:00.491Z,102036.94
2023-05-18T18:44:33.546Z,102038.91
2023-05-18T18:47:06.615Z,102041.56
2023-05-18T18:49:39.662Z,102043.50
2023-05-18T18:52:13.866Z,102048.53
2023-05-18T18:54:47.292Z,102042.88
2023-05-18T18:57:21.870Z,102038.06
2023-05-18T18:59:55.117Z,102043.97
2023-05-18T19:02:28.078Z,102040.97
2023-05-18T19:05:01.146Z,102047.63
2023-05-18T19:07:34.341Z,102044.47
2023-05-18T19:10:08.655Z,102042.44
2023-05-18T19:12:43.654Z,102048.13
2023-05-18T19:15:16.741Z,102057.69
2023-05-18T19:17:51.905Z,102053.44
2023-05-18T19:20:24.946Z,102049.22
2023-05-18T19:22:57.990Z,102054.34
2023-05-18T19:25:31.282Z,102051.34
2023-05-18T19:28:06.259Z,102054.22
2023-05-18T19:30:39.147Z,102055.53
2023-05-18T19:33:12.178Z,102060.63
2023-05-18T19:35:45.655Z,102068.91
2023-05-18T19:38:18.544Z,102069.47
2023-05-18T19:40:51.453Z,102073.00
2023-05-18T19:43:25.839Z,102075.75
2023-05-18T19:45:59.103Z,102080.53
2023-05-18T19:48:32.096Z,102078.13
2023-05-18T19:51:05.780Z,102085.94
2023-05-18T19:53:38.713Z,102084.72
2023-05-18T19:56:11.966Z,102086.22
2023-05-18T19:58:46.237Z,102087.66
2023-05-18T20:01:19.248Z,102093.19
2023-05-18T20:03:52.498Z,102096.31
2023-05-18T20:06:25.679Z,102101.31
2023-05-18T20:08:58.983Z,102094.00
2023-05-18T20:11:31.843Z,102084.69
2023-05-18T20:14:06.187Z,102091.28
2023-05-18T20:16:40.600Z,102087.50
2023-05-18T20:19:14.017Z,102094.03
2023-05-18T20:21:48.446Z,102095.00
2023-05-18T20:24:21.399Z,102094.09
2023-05-18T20:26:54.390Z,102093.16
2023-05-18T20:29:28.606Z,102088.75
2023-05-18T20:32:01.661Z,102107.41
2023-05-18T20:34:35.632Z,102112.88
2023-05-18T20:37:10.902Z,102105.56
2023-05-18T20:39:50.328Z,102109.69
2023-05-18T20:42:24.194Z,102110.59
2023-05-18T20:44:58.995Z,102110.53
2023-05-18T20:47:32.218Z,102119.22
2023-05-18T20:50:05.683Z,102120.97
2023-05-18T20:52:38.510Z,102120.63
2023-05-18T20:55:12.067Z,102119.41
2023-05-18T20:57:48.784Z,102122.84
2023-05-18T21:00:23.002Z,102123.50
2023-05-18T21:02:56.414Z,102127.50
2023-05-18T21:05:29.352Z,102128.03
2023-05-18T21:08:03.288Z,102127.38
2023-05-18T21:10:36.196Z,102122.00
2023-05-18T21:13:09.683Z,102121.38
2023-05-18T21:15:44.105Z,102123.09
2023-05-18T21:18:17.821Z,102115.75
2023-05-18T21:20:50.638Z,102119.19
2023-05-18T21:23:23.484Z,102115.03
2023-05-18T21:25:58.166Z,102124.19
2023-05-18T21:28:30.851Z,102119.16
2023-05-18T21:31:05.774Z,102122.84
2023-05-18T21:33:38.705Z,102124.75
2023-05-18T21:36:11.847Z,102119.75
2023-05-18T21:38:44.693Z,102124.03
2023-05-18T21:41:17.511Z,102122.69
2023-05-18T21:43:50.459Z,102120.84
2023-05-18T21:46:24.882Z,102124.00
2023-05-18T21:48:58.536Z,102129.84
2023-05-18T21:51:32.305Z,102126.16
2023-05-18T21:54:05.228Z,102121.34
2023-05-18T21:56:38.331Z,102119.50
2023-05-18T21:59:11.497Z,102127.34
2023-05-18T22:01:45.711Z,102118.25
2023-05-18T22:04:18.672Z,102121.28
2023-05-18T22:06:54.337Z,102126.03
2023-05-18T22:09:27.339Z,102128.19
2023-05-18T22:12:00.188Z,102117.56
2023-05-18T22:14:33.047Z,102119.81
2023-05-18T22:17:07.449Z,102125.88
2023-05-18T22:19:42.002Z,102128.44
2023-05-18T22:22:26.581Z,102127.72
2023-05-18T22:25:02.844Z,102133.22
2023-05-18T22:27:36.667Z,102140.38
2023-05-18T22:30:10.763Z,102132.53
2023-05-18T22:32:46.188Z,102122.41
2023-05-18T22:35:19.326Z,102125.84
2023-05-18T22:37:53.369Z,102123.63
2023-05-18T22:40:26.286Z,102129.00
2023-05-18T22:42:59.214Z,102126.50
2023-05-18T22:45:33.200Z,102122.53
2023-05-18T22:48:07.888Z,102127.75
2023-05-18T22:50:40.781Z,102125.38
2023-05-18T22:53:13.783Z,102120.22
2023-05-18T22:55:46.823Z,102118.81
2023-05-18T22:58:19.814Z,102117.34
2023-05-18T23:00:52.691Z,102131.16
2023-05-18T23:03:26.989Z,102126.53
2023-05-18T23:06:03.013Z,102136.75
2023-05-18T23:08:36.786Z,102123.34
2023-05-18T23:11:10.240Z,102124.53
2023-05-18T23:13:43.015Z,102125.56
2023-05-18T23:16:16.057Z,102130.88
2023-05-18T23:18:50.564Z,102129.91
2023-05-18T23:21:23.549Z,102130.69
2023-05-18T23:23:56.368Z,102122.34
2023-05-18T23:26:29.178Z,102122.34
2023-05-18T23:29:02.261Z,102113.22
2023-05-18T23:31:35.208Z,102118.69
2023-05-18T23:34:09.934Z,102121.25
2023-05-18T23:36:43.532Z,102125.72
2023-05-18T23:39:16.470Z,102117.59
2023-05-18T23:41:50.759Z,102115.63
2023-05-18T23:44:24.239Z,102123.56
2023-05-18T23:46:57.844Z,102122.53
2023-05-18T23:49:32.923Z,102112.31
2023-05-18T23:52:06.583Z,102122.84
2023-05-18T23:54:40.004Z,102114.41
2023-05-18T23:57:13.614Z,102118.09
2023-05-18T23:59:47.165Z,102105.78
